Time;durP1;ratioP1;P1;durP2;ratioP2;P2;SDS_P1;SDS_P2;PMS_P1;PMS_P2;Temp;Humidity;BMP_temperature;BMP_pressure;BME280_temperature;BME280_humidity;BME280_pressure;Samples;Min_cycle;Max_cycle;Signal;HPM_P1;HPM_P2
2022/07/07 00:01:11;;;;;;;1.70;1.02;;;17.90;99.90;;;;;;5034425;28;20459;-85
2022/07/07 00:03:36;;;;;;;6.15;1.20;;;17.90;99.90;;;;;;5034302;28;20060;-87
2022/07/07 00:06:02;;;;;;;3.00;1.50;;;18.00;99.90;;;;;;5034343;28;20106;-86
2022/07/07 00:08:28;;;;;;;2.92;1.60;;;17.90;99.90;;;;;;5034202;28;20028;-88
2022/07/07 00:10:54;;;;;;;3.15;1.33;;;17.90;99.90;;;;;;5034713;28;20040;-88
2022/07/07 00:13:20;;;;;;;2.92;1.33;;;17.90;99.90;;;;;;5034425;28;20060;-88
2022/07/07 00:15:46;;;;;;;3.58;1.75;;;17.80;99.90;;;;;;5038744;28;20036;-87
2022/07/07 00:18:12;;;;;;;3.72;1.83;;;17.80;99.90;;;;;;5034756;28;20480;-88
2022/07/07 00:20:38;;;;;;;2.58;1.75;;;17.70;99.90;;;;;;5034733;28;20226;-88
2022/07/07 00:23:04;;;;;;;5.35;1.60;;;17.70;99.90;;;;;;5034093;28;20047;-88
2022/07/07 00:25:30;;;;;;;4.72;1.58;;;17.60;99.90;;;;;;5034739;28;20077;-89
2022/07/07 00:27:55;;;;;;;2.30;1.38;;;17.60;99.90;;;;;;5034780;28;20477;-86
2022/07/07 00:30:21;;;;;;;3.13;1.35;;;17.60;99.90;;;;;;5051072;28;20102;-87
2022/07/07 00:32:47;;;;;;;4.57;2.00;;;17.60;99.90;;;;;;5034191;28;20110;-87
2022/07/07 00:35:13;;;;;;;2.35;1.65;;;17.50;99.90;;;;;;5052107;28;20036;-87
2022/07/07 00:37:38;;;;;;;2.28;1.48;;;17.40;99.90;;;;;;5051693;28;20089;-88
2022/07/07 00:40:05;;;;;;;4.32;1.38;;;17.40;99.90;;;;;;5033979;28;20025;-88
2022/07/07 00:42:30;;;;;;;6.85;1.98;;;17.30;99.90;;;;;;5049438;28;20485;-88
2022/07/07 00:44:56;;;;;;;3.55;2.13;;;17.30;99.90;;;;;;5033757;28;20106;-88
2022/07/07 00:47:22;;;;;;;4.28;2.05;;;17.30;99.90;;;;;;5033353;28;20485;-87
2022/07/07 00:49:47;;;;;;;2.47;1.90;;;17.20;99.90;;;;;;5050479;28;20100;-87
2022/07/07 00:52:13;;;;;;;2.47;1.67;;;17.10;99.90;;;;;;5050169;28;20072;-86
2022/07/07 00:54:39;;;;;;;4.38;1.55;;;17.00;99.90;;;;;;5049855;28;20025;-88
2022/07/07 00:57:06;;;;;;;7.43;2.03;;;17.00;99.90;;;;;;5050538;28;20104;-87
2022/07/07 00:59:34;;;;;;;2.03;1.48;;;17.00;99.90;;;;;;5050268;28;20120;-87
2022/07/07 01:02:01;;;;;;;4.00;1.75;;;16.90;99.90;;;;;;5050852;28;20067;-87
2022/07/07 01:04:27;;;;;;;3.75;1.88;;;16.90;99.90;;;;;;5050681;28;20025;-86
2022/07/07 01:06:53;;;;;;;2.95;1.83;;;16.90;99.90;;;;;;5050224;28;20430;-86
2022/07/07 01:09:19;;;;;;;2.85;1.95;;;16.80;99.90;;;;;;5050128;28;20116;-85
2022/07/07 01:11:52;;;;;;;3.80;2.25;;;16.80;99.90;;;;;;5049293;28;20067;-87
2022/07/07 01:14:19;;;;;;;4.25;1.73;;;16.80;99.90;;;;;;5049756;28;20033;-86
2022/07/07 01:16:45;;;;;;;2.75;1.85;;;16.70;99.90;;;;;;5050906;28;20103;-87
2022/07/07 01:19:11;;;;;;;6.07;2.80;;;16.70;99.90;;;;;;5050112;28;20032;-87
2022/07/07 01:21:53;;;;;;;9.57;2.20;;;16.70;99.90;;;;;;5049716;28;20036;-87
2022/07/07 01:24:23;;;;;;;6.13;2.03;;;16.60;99.90;;;;;;5051723;28;20037;-87
2022/07/07 01:26:49;;;;;;;6.32;2.20;;;16.60;99.90;;;;;;5051853;28;20033;-87
2022/07/07 01:29:15;;;;;;;4.07;2.05;;;16.60;99.90;;;;;;5048807;28;20045;-95
2022/07/07 01:31:40;;;;;;;3.67;2.20;;;16.50;99.90;;;;;;5052235;28;20021;-94
2022/07/07 01:34:06;;;;;;;3.38;1.92;;;16.50;99.90;;;;;;5051717;28;20029;-96
2022/07/07 01:36:32;;;;;;;3.35;2.38;;;16.50;99.90;;;;;;5050423;28;20035;-96
2022/07/07 01:38:57;;;;;;;4.95;2.20;;;16.40;99.90;;;;;;5050605;28;20032;-95
2022/07/07 01:41:23;;;;;;;3.40;2.20;;;16.40;99.90;;;;;;5053097;28;20096;-96
2022/07/07 01:43:48;;;;;;;;;;;16.50;99.90;;;;;;5051501;28;20025;-96
2022/07/07 01:46:14;;;;;;;5.72;2.40;;;16.50;99.90;;;;;;5050953;28;19912;-96
2022/07/07 01:48:40;;;;;;;12.48;2.60;;;16.50;99.90;;;;;;5052748;28;20542;-96
2022/07/07 01:51:06;;;;;;;2.75;2.00;;;16.50;99.90;;;;;;5051605;28;20048;-95
2022/07/07 01:53:32;;;;;;;3.70;2.75;;;16.40;99.90;;;;;;5060339;28;20492;-96
2022/07/07 01:56:03;;;;;;;2.63;1.85;;;16.40;99.90;;;;;;5062951;28;20124;-96
2022/07/07 01:58:30;;;;;;;5.78;2.58;;;16.40;99.90;;;;;;5052006;28;20029;-96
2022/07/07 02:00:56;;;;;;;3.55;2.10;;;16.40;99.90;;;;;;5054099;28;20501;-96
2022/07/07 02:03:21;;;;;;;8.05;1.85;;;16.40;99.90;;;;;;5052345;28;20036;-96
2022/07/07 02:05:47;;;;;;;2.28;1.52;;;16.30;99.90;;;;;;5056856;28;20381;-96
2022/07/07 02:08:12;;;;;;;2.42;1.83;;;16.30;99.90;;;;;;5071255;28;20017;-94
2022/07/07 02:13:22;;;;;;;3.70;1.60;;;16.30;99.90;;;;;;5050318;28;20102;-95
2022/07/07 02:15:48;;;;;;;2.00;1.58;;;16.30;99.90;;;;;;5050426;28;20092;-96
2022/07/07 02:18:13;;;;;;;2.83;1.80;;;16.30;99.90;;;;;;5049811;28;20032;-96
2022/07/07 02:20:39;;;;;;;2.60;1.67;;;16.20;99.90;;;;;;5059742;28;20497;-96
2022/07/07 02:23:05;;;;;;;6.07;2.17;;;16.20;99.90;;;;;;5053640;28;20045;-96
2022/07/07 02:25:30;;;;;;;6.85;2.15;;;16.20;99.90;;;;;;5069149;28;20051;-95
2022/07/07 02:27:56;;;;;;;6.38;2.03;;;16.10;99.90;;;;;;5072859;28;20077;-96
2022/07/07 02:30:22;;;;;;;5.30;1.90;;;16.00;99.90;;;;;;5073650;28;20508;-96
2022/07/07 02:32:47;;;;;;;2.90;1.65;;;15.90;99.90;;;;;;5076016;28;20448;-95
2022/07/07 02:35:13;;;;;;;2.72;1.67;;;15.80;99.90;;;;;;5074469;28;20070;-96
2022/07/07 02:37:38;;;;;;;1.90;1.30;;;15.80;99.90;;;;;;5066763;28;20091;-94
2022/07/07 02:40:04;;;;;;;;;;;15.70;99.90;;;;;;5050392;28;20025;-94
2022/07/07 02:42:30;;;;;;;3.20;1.52;;;15.70;99.90;;;;;;5052373;28;19908;-93
2022/07/07 02:44:55;;;;;;;2.55;1.67;;;15.70;99.90;;;;;;5054202;28;20116;-94
2022/07/07 02:47:21;;;;;;;;;;;15.70;99.90;;;;;;5071985;28;20021;-93
2022/07/07 02:49:47;;;;;;;4.13;1.58;;;15.70;99.90;;;;;;5073532;28;19974;-93
2022/07/07 02:52:12;;;;;;;;;;;15.70;99.90;;;;;;5075302;28;20616;-93
2022/07/07 02:54:38;;;;;;;3.85;1.83;;;15.70;99.90;;;;;;5074280;28;19916;-94
2022/07/07 02:57:03;;;;;;;3.47;1.95;;;15.70;99.90;;;;;;5067576;28;20181;-94
2022/07/07 02:59:29;;;;;;;;;;;15.70;99.90;;;;;;5054394;28;20496;-94
2022/07/07 03:01:55;;;;;;;3.72;2.20;;;15.70;99.90;;;;;;5054232;28;19908;-94
2022/07/07 03:04:20;;;;;;;3.67;1.50;;;15.60;99.90;;;;;;5053331;28;20535;-94
2022/07/07 03:06:46;;;;;;;;;;;15.60;99.90;;;;;;5053535;28;20029;-95
2022/07/07 03:09:12;;;;;;;6.90;1.95;;;15.50;99.90;;;;;;5053499;28;19909;-93
2022/07/07 03:11:38;;;;;;;7.70;2.75;;;15.40;99.90;;;;;;5054592;28;20031;-93
2022/07/07 03:14:03;;;;;;;;;;;15.50;99.90;;;;;;5053743;28;20024;-94
2022/07/07 03:16:29;;;;;;;2.90;1.92;;;15.50;99.90;;;;;;5053435;28;19947;-94
2022/07/07 03:18:54;;;;;;;12.32;2.20;;;15.50;99.90;;;;;;5052530;28;20033;-93
2022/07/07 03:21:20;;;;;;;;;;;15.60;99.90;;;;;;5053276;28;20489;-94
2022/07/07 03:23:46;;;;;;;6.22;1.75;;;15.60;99.90;;;;;;5052882;28;19909;-94
2022/07/07 03:26:11;;;;;;;;;;;15.70;99.90;;;;;;5060977;28;20021;-93
2022/07/07 03:28:37;;;;;;;5.32;2.10;;;15.80;99.90;;;;;;5072857;28;20357;-92
2022/07/07 03:31:02;;;;;;;;;;;15.90;99.90;;;;;;5073247;28;20052;-93
2022/07/07 03:33:28;;;;;;;6.30;1.45;;;16.00;99.90;;;;;;5070242;28;19908;-93
2022/07/07 03:35:54;;;;;;;;;;;16.10;99.90;;;;;;5036848;28;20484;-94
2022/07/07 03:38:20;;;;;;;2.10;1.30;;;16.10;99.90;;;;;;5036912;28;19916;-93
2022/07/07 03:40:45;;;;;;;3.92;1.95;;;16.20;99.90;;;;;;5036108;28;20420;-94
2022/07/07 03:43:11;;;;;;;2.60;1.55;;;16.30;99.90;;;;;;5036448;28;20029;-95
2022/07/07 03:45:36;;;;;;;;;;;16.40;99.90;;;;;;5036127;28;20028;-93
2022/07/07 03:48:02;;;;;;;3.65;1.27;;;16.50;99.90;;;;;;5037199;28;19944;-95
2022/07/07 03:50:28;;;;;;;3.05;1.40;;;16.60;99.90;;;;;;5036271;28;20032;-95
2022/07/07 03:52:53;;;;;;;3.55;1.67;;;16.70;99.90;;;;;;5035614;28;20033;-92
2022/07/07 03:55:19;;;;;;;3.20;1.90;;;16.80;99.90;;;;;;5036075;28;20082;-93
2022/07/07 03:57:44;;;;;;;2.05;1.20;;;16.90;99.90;;;;;;5041262;28;20043;-94
2022/07/07 04:00:11;;;;;;;3.72;1.40;;;17.10;99.90;;;;;;5036764;28;20036;-94
2022/07/07 04:02:37;;;;;;;3.60;1.70;;;17.20;99.90;;;;;;5038493;28;20505;-96
2022/07/07 04:05:03;;;;;;;2.35;1.33;;;17.30;99.90;;;;;;5035921;28;20054;-95
2022/07/07 04:07:29;;;;;;;4.93;1.77;;;17.50;99.90;;;;;;5035124;28;20040;-95
2022/07/07 04:09:55;;;;;;;19.42;1.58;;;17.80;99.90;;;;;;5036223;28;20025;-95
2022/07/07 04:12:21;;;;;;;2.28;1.25;;;18.00;99.90;;;;;;5034962;28;20357;-95
2022/07/07 04:14:46;;;;;;;2.30;1.10;;;18.20;99.90;;;;;;5034922;28;20562;-94
2022/07/07 04:17:12;;;;;;;2.65;1.02;;;18.30;99.90;;;;;;5035206;28;20562;-94
2022/07/07 04:19:39;;;;;;;2.67;1.10;;;18.40;99.90;;;;;;5034991;28;20033;-95
2022/07/07 04:22:05;;;;;;;2.78;1.50;;;18.40;99.90;;;;;;5044805;28;20043;-96
2022/07/07 04:24:31;;;;;;;3.53;1.45;;;18.40;99.90;;;;;;5038658;28;20111;-93
2022/07/07 04:26:56;;;;;;;4.25;1.30;;;18.30;99.90;;;;;;5034856;28;20115;-95
2022/07/07 04:29:22;;;;;;;1.83;1.10;;;18.30;99.90;;;;;;5035828;28;20037;-94
2022/07/07 04:31:48;;;;;;;3.13;1.50;;;18.30;99.90;;;;;;5055169;28;20056;-94
2022/07/07 04:34:14;;;;;;;1.90;0.98;;;18.40;99.90;;;;;;5054800;28;20112;-94
2022/07/07 04:36:40;;;;;;;4.82;1.00;;;18.60;99.90;;;;;;5054510;28;20032;-95
2022/07/07 04:39:06;;;;;;;1.83;0.88;;;18.80;99.90;;;;;;5038688;28;20032;-93
2022/07/07 04:41:31;;;;;;;3.00;1.20;;;18.80;99.90;;;;;;5034327;28;20033;-95
2022/07/07 04:43:57;;;;;;;4.97;1.10;;;18.80;99.90;;;;;;5034113;28;20025;-93
2022/07/07 04:46:22;;;;;;;2.33;1.20;;;18.90;99.90;;;;;;5051938;28;20035;-94
2022/07/07 04:48:48;;;;;;;3.17;0.95;;;19.10;99.90;;;;;;5052429;28;20394;-95
2022/07/07 04:51:14;;;;;;;8.15;0.93;;;19.30;99.90;;;;;;5034178;28;20033;-95
2022/07/07 04:53:39;;;;;;;3.30;1.15;;;19.50;99.90;;;;;;5034122;28;20017;-93
2022/07/07 04:56:05;;;;;;;3.50;0.77;;;19.70;99.90;;;;;;5034968;28;20056;-93
2022/07/07 04:58:31;;;;;;;3.90;0.90;;;19.80;99.90;;;;;;5034435;28;20025;-92
2022/07/07 05:00:56;;;;;;;6.45;0.82;;;20.00;99.90;;;;;;5034655;28;20049;-93
2022/07/07 05:03:22;;;;;;;2.00;0.70;;;20.20;99.90;;;;;;5037027;28;20025;-93
2022/07/07 05:05:48;;;;;;;2.97;1.02;;;20.40;99.90;;;;;;5033034;28;20428;-93
2022/07/07 05:08:13;;;;;;;1.98;0.98;;;20.60;99.90;;;;;;5034503;28;20060;-92
2022/07/07 05:10:39;;;;;;;2.60;0.82;;;20.80;99.90;;;;;;5033968;28;20036;-92
2022/07/07 05:13:05;;;;;;;2.05;0.90;;;21.10;99.90;;;;;;5033896;28;20074;-93
2022/07/07 05:15:30;;;;;;;2.58;0.93;;;21.30;99.90;;;;;;5034214;28;20025;-92
2022/07/07 05:17:56;;;;;;;1.30;0.75;;;21.50;99.90;;;;;;5034200;28;20025;-92
2022/07/07 05:20:22;;;;;;;3.00;0.95;;;21.70;99.60;;;;;;5033529;28;20482;-93
2022/07/07 05:22:47;;;;;;;1.42;0.88;;;22.10;98.80;;;;;;5033480;28;20107;-93
2022/07/07 05:25:13;;;;;;;2.08;1.00;;;22.40;98.20;;;;;;5034511;28;20107;-91
2022/07/07 05:27:39;;;;;;;2.67;1.80;;;22.70;97.90;;;;;;5033699;28;20033;-93
2022/07/07 05:30:05;;;;;;;2.30;0.80;;;22.80;97.40;;;;;;5034011;28;20048;-92
2022/07/07 05:32:30;;;;;;;1.85;0.88;;;22.90;96.20;;;;;;5034048;28;20021;-91
2022/07/07 05:34:56;;;;;;;2.38;0.70;;;23.10;94.70;;;;;;5033746;28;20473;-92
2022/07/07 05:37:22;;;;;;;2.85;0.90;;;23.10;90.70;;;;;;5033311;28;20546;-92
2022/07/07 05:39:47;;;;;;;1.08;0.70;;;23.20;90.50;;;;;;5048785;28;20506;-91
2022/07/07 05:42:13;;;;;;;2.58;0.60;;;23.10;89.50;;;;;;5031740;28;20040;-92
2022/07/07 05:44:39;;;;;;;1.30;0.60;;;23.30;86.20;;;;;;5034324;28;20037;-92
2022/07/07 05:47:05;;;;;;;1.70;0.70;;;23.50;81.70;;;;;;5032893;28;20029;-90
2022/07/07 05:49:31;;;;;;;0.73;0.45;;;23.70;78.90;;;;;;5037784;28;20020;-92
2022/07/07 05:51:56;;;;;;;1.88;0.80;;;24.00;76.30;;;;;;5053801;28;20021;-92
2022/07/07 05:54:22;;;;;;;1.63;0.68;;;24.40;69.40;;;;;;5054187;28;20029;-93
2022/07/07 05:56:48;;;;;;;1.98;0.65;;;24.60;63.90;;;;;;5053795;28;20485;-93
2022/07/07 05:59:13;;;;;;;1.88;0.80;;;25.20;63.50;;;;;;5036802;28;20028;-93
2022/07/07 06:01:39;;;;;;;9.43;0.90;;;26.10;63.90;;;;;;5033521;28;20131;-92
2022/07/07 06:04:06;;;;;;;4.68;0.60;;;27.60;61.70;;;;;;5033717;28;20017;-91
2022/07/07 06:06:32;;;;;;;3.75;0.60;;;28.80;56.30;;;;;;5033915;28;20032;-94
2022/07/07 06:08:57;;;;;;;2.40;0.50;;;30.10;51.00;;;;;;5034401;28;20017;-91
2022/07/07 06:11:24;;;;;;;3.90;0.60;;;31.20;46.10;;;;;;5033558;28;20043;-92
2022/07/07 06:13:50;;;;;;;0.75;0.50;;;32.30;43.20;;;;;;5050864;28;20021;-92
2022/07/07 06:16:15;;;;;;;4.15;0.70;;;33.20;38.20;;;;;;5033989;28;20090;-92
2022/07/07 06:18:41;;;;;;;4.43;0.45;;;33.80;35.00;;;;;;5037438;28;20025;-91
2022/07/07 06:21:07;;;;;;;7.05;0.60;;;34.30;33.30;;;;;;5038675;28;20044;-90
2022/07/07 06:23:32;;;;;;;1.25;0.40;;;34.60;31.60;;;;;;5057697;28;20402;-90
2022/07/07 06:26:02;;;;;;;13.10;1.00;;;34.90;30.70;;;;;;5038487;28;20029;-91
2022/07/07 06:28:28;;;;;;;4.55;0.90;;;35.10;30.70;;;;;;5058198;28;20100;-92
2022/07/07 06:30:54;;;;;;;2.47;0.77;;;35.50;30.00;;;;;;5055980;28;20064;-91
2022/07/07 06:33:20;;;;;;;3.80;0.60;;;35.60;29.60;;;;;;5050115;28;20033;-91
2022/07/07 06:35:45;;;;;;;3.67;1.05;;;35.90;29.00;;;;;;5055287;28;20085;-91
2022/07/07 06:38:11;;;;;;;2.28;0.68;;;36.10;28.70;;;;;;5037224;28;20091;-90
2022/07/07 06:40:37;;;;;;;3.78;0.60;;;36.10;28.40;;;;;;5036678;28;20559;-91
2022/07/07 06:43:02;;;;;;;12.60;0.70;;;36.00;28.50;;;;;;5036297;28;20021;-91
2022/07/07 06:45:29;;;;;;;1.23;0.60;;;36.10;28.90;;;;;;5036547;28;20021;-91
2022/07/07 06:47:55;;;;;;;2.03;0.68;;;36.30;28.50;;;;;;5036028;28;20028;-90
2022/07/07 06:50:21;;;;;;;3.08;0.90;;;36.10;28.40;;;;;;5036542;28;20029;-91
2022/07/07 06:52:46;;;;;;;1.52;0.60;;;36.20;28.80;;;;;;5036171;28;20396;-91
2022/07/07 06:55:12;;;;;;;2.72;0.60;;;36.40;29.00;;;;;;5036517;28;20032;-91
2022/07/07 06:57:38;;;;;;;5.28;0.93;;;36.30;27.90;;;;;;5039658;28;20538;-91
2022/07/07 07:00:05;;;;;;;3.88;0.60;;;36.40;28.30;;;;;;5055797;28;20082;-90
2022/07/07 07:02:30;;;;;;;3.45;0.60;;;36.20;28.20;;;;;;5056533;28;20033;-91
2022/07/07 07:04:56;;;;;;;3.08;0.60;;;35.80;29.20;;;;;;5055682;28;20024;-91
2022/07/07 07:07:22;;;;;;;2.80;0.98;;;35.00;28.40;;;;;;5038287;28;20539;-90
2022/07/07 07:13:10;;;;;;;7.03;0.70;;;33.70;30.70;;;;;;5053612;28;20096;-91
2022/07/07 07:15:35;;;;;;;1.40;0.70;;;33.50;30.40;;;;;;5035851;28;20048;-91
2022/07/07 07:18:01;;;;;;;4.25;0.88;;;33.80;30.70;;;;;;5035718;28;20013;-92
2022/07/07 07:20:27;;;;;;;2.95;0.75;;;33.80;30.40;;;;;;5041715;28;20055;-91
2022/07/07 07:22:52;;;;;;;3.28;0.57;;;33.90;30.00;;;;;;5055706;28;20028;-90
2022/07/07 07:25:19;;;;;;;5.95;0.82;;;33.90;31.10;;;;;;5055482;28;20444;-90
2022/07/07 07:27:44;;;;;;;4.15;0.80;;;33.90;30.90;;;;;;5055398;28;20016;-91
2022/07/07 07:30:11;;;;;;;2.70;0.80;;;33.20;31.00;;;;;;5047557;28;20059;-90
2022/07/07 07:32:36;;;;;;;4.75;0.70;;;32.30;32.20;;;;;;5035720;28;20112;-90
2022/07/07 07:35:02;;;;;;;9.38;0.82;;;31.00;34.10;;;;;;5036105;28;20124;-90
2022/07/07 07:37:28;;;;;;;4.75;0.80;;;30.30;35.80;;;;;;5035785;28;20025;-91
2022/07/07 07:39:53;;;;;;;1.95;0.88;;;29.80;37.40;;;;;;5035812;28;20040;-90
2022/07/07 07:42:19;;;;;;;1.77;0.98;;;29.40;38.30;;;;;;5036132;28;20025;-90
2022/07/07 07:47:29;;;;;;;2.15;0.90;;;28.60;40.80;;;;;;5052578;28;20031;-91
2022/07/07 07:49:54;;;;;;;6.00;0.82;;;28.50;40.30;;;;;;5034876;28;20033;-90
2022/07/07 07:52:20;;;;;;;2.22;0.77;;;28.90;40.60;;;;;;5035379;28;20401;-89
2022/07/07 07:54:45;;;;;;;2.72;0.85;;;29.30;40.50;;;;;;5035591;28;20025;-90
2022/07/07 07:57:11;;;;;;;6.43;0.93;;;30.00;39.40;;;;;;5035312;28;20025;-91
2022/07/07 07:59:37;;;;;;;4.18;0.85;;;31.10;37.60;;;;;;5034920;28;20037;-91
2022/07/07 08:02:03;;;;;;;3.50;0.80;;;31.90;36.20;;;;;;5035180;28;20560;-91
2022/07/07 08:04:29;;;;;;;13.98;1.10;;;32.60;34.60;;;;;;5053545;28;20597;-88
2022/07/07 08:06:55;;;;;;;2.95;0.80;;;33.00;34.90;;;;;;5033916;28;20025;-90
2022/07/07 08:09:20;;;;;;;1.83;0.80;;;33.30;34.10;;;;;;5035167;28;20129;-89
2022/07/07 08:11:46;;;;;;;2.80;0.80;;;33.70;33.90;;;;;;5034104;28;20489;-90
2022/07/07 08:14:12;;;;;;;4.45;0.77;;;34.00;33.40;;;;;;5034930;28;20441;-93
2022/07/07 08:16:37;;;;;;;2.08;1.00;;;33.60;33.30;;;;;;5035380;28;20036;-90
2022/07/07 08:19:03;;;;;;;6.93;0.73;;;32.90;33.70;;;;;;5034430;28;20025;-89
2022/07/07 08:21:29;;;;;;;9.88;0.80;;;32.00;34.80;;;;;;5034518;28;20547;-90
2022/07/07 08:23:54;;;;;;;1.33;0.80;;;31.20;35.70;;;;;;5034953;28;20455;-90
2022/07/07 08:26:20;;;;;;;2.63;1.17;;;30.50;37.10;;;;;;5034685;28;20032;-90
2022/07/07 08:28:45;;;;;;;3.70;0.88;;;30.10;37.50;;;;;;5039371;28;20036;-90
2022/07/07 08:31:11;;;;;;;2.35;1.10;;;29.60;38.20;;;;;;5033673;28;20056;-90
2022/07/07 08:33:37;;;;;;;2.83;0.80;;;29.20;38.10;;;;;;5034216;28;20104;-92
2022/07/07 08:36:03;;;;;;;4.88;1.10;;;28.80;38.50;;;;;;5034518;28;20033;-91
2022/07/07 08:38:29;;;;;;;5.95;0.70;;;28.40;39.20;;;;;;5033980;28;20032;-92
2022/07/07 08:40:55;;;;;;;2.70;0.75;;;28.00;39.10;;;;;;5033700;28;20025;-91
2022/07/07 08:43:20;;;;;;;3.05;1.15;;;27.50;40.20;;;;;;5034485;28;20025;-92
2022/07/07 08:45:48;;;;;;;2.78;1.35;;;27.20;40.40;;;;;;5034737;28;20029;-92
2022/07/07 08:48:14;;;;;;;2.70;0.90;;;26.70;41.20;;;;;;5034333;28;20031;-94
2022/07/07 08:50:40;;;;;;;2.80;0.80;;;26.60;42.10;;;;;;5034255;28;20040;-91
2022/07/07 08:53:08;;;;;;;3.20;0.70;;;26.40;42.50;;;;;;5034435;28;20493;-92
2022/07/07 08:55:36;;;;;;;2.30;0.80;;;26.30;42.70;;;;;;5033926;28;20119;-92
2022/07/07 08:58:02;;;;;;;2.65;1.10;;;26.10;43.00;;;;;;5033197;28;20033;-92
2022/07/07 09:00:27;;;;;;;3.08;0.98;;;25.90;42.80;;;;;;5032191;28;20033;-90
2022/07/07 09:02:57;;;;;;;2.08;0.88;;;25.70;42.60;;;;;;5031421;28;20037;-92
2022/07/07 09:05:25;;;;;;;14.90;1.30;;;25.60;43.20;;;;;;5033799;28;20063;-93
2022/07/07 09:07:52;;;;;;;2.20;0.80;;;25.70;44.40;;;;;;5034600;28;20237;-91
2022/07/07 09:10:36;;;;;;;2.60;0.70;;;26.20;43.70;;;;;;5034489;28;20119;-92
2022/07/07 09:13:18;;;;;;;2.45;0.80;;;27.00;42.30;;;;;;5034017;28;20033;-93
2022/07/07 09:15:44;;;;;;;1.75;0.68;;;27.60;41.20;;;;;;5030606;28;20029;-93
2022/07/07 09:18:09;;;;;;;2.22;0.73;;;28.10;40.80;;;;;;5013853;28;20509;-91
2022/07/07 09:20:36;;;;;;;5.53;0.90;;;29.10;40.50;;;;;;5014033;28;20029;-92
2022/07/07 09:23:02;;;;;;;3.38;0.77;;;30.00;38.00;;;;;;5027857;28;20123;-91
2022/07/07 09:25:28;;;;;;;2.00;0.90;;;30.20;37.50;;;;;;5034223;28;20081;-91
2022/07/07 09:28:02;;;;;;;12.95;1.98;;;30.10;37.60;;;;;;5034389;28;20029;-91
2022/07/07 09:30:35;;;;;;;1.50;0.70;;;30.10;38.80;;;;;;5043933;28;20413;-91
2022/07/07 09:33:03;;;;;;;3.33;0.85;;;29.90;38.00;;;;;;5053490;28;20432;-91
2022/07/07 09:38:16;;;;;;;2.72;0.80;;;29.60;39.00;;;;;;5062642;28;20032;-90
2022/07/07 09:40:58;;;;;;;2.85;0.90;;;29.70;38.50;;;;;;5033771;28;20212;-89
2022/07/07 09:43:23;;;;;;;4.78;1.23;;;29.80;38.00;;;;;;5033707;28;20040;-91
2022/07/07 09:46:19;;;;;;;6.50;0.98;;;29.80;38.60;;;;;;5033360;28;20025;-90
2022/07/07 09:48:59;;;;;;;1.08;0.60;;;29.90;38.00;;;;;;5033536;28;20025;-91
2022/07/07 09:51:30;;;;;;;2.78;0.95;;;29.70;38.80;;;;;;5035311;28;20456;-91
2022/07/07 09:53:59;;;;;;;11.82;1.00;;;29.60;39.40;;;;;;5038185;28;20025;-90
2022/07/07 09:56:28;;;;;;;4.40;0.93;;;29.30;38.90;;;;;;5055031;28;20029;-90
2022/07/07 09:58:54;;;;;;;5.78;0.93;;;29.20;39.10;;;;;;5037785;28;20025;-92
2022/07/07 10:01:24;;;;;;;5.00;0.70;;;29.00;39.70;;;;;;5037101;28;20059;-92
2022/07/07 10:03:56;;;;;;;3.47;1.00;;;29.00;39.10;;;;;;5037381;28;20025;-93
2022/07/07 10:06:24;;;;;;;3.33;0.70;;;28.90;39.10;;;;;;5037240;28;20025;-93
2022/07/07 10:09:15;;;;;;;1.98;0.93;;;28.90;38.90;;;;;;5036836;28;20115;-93
2022/07/07 10:11:46;;;;;;;5.20;1.15;;;29.10;38.60;;;;;;5036869;28;20056;-94
2022/07/07 10:14:17;;;;;;;2.97;0.90;;;29.30;37.90;;;;;;5037338;28;20025;-93
2022/07/07 10:16:45;;;;;;;2.58;0.90;;;29.60;37.30;;;;;;5037411;28;20056;-93
2022/07/07 10:19:13;;;;;;;1.80;0.70;;;29.70;37.50;;;;;;5036798;28;20017;-93
2022/07/07 10:21:48;;;;;;;6.55;0.80;;;29.80;37.20;;;;;;5037455;28;20040;-92
2022/07/07 10:24:16;;;;;;;2.42;0.80;;;29.60;35.80;;;;;;5036774;28;20021;-93
2022/07/07 10:26:49;;;;;;;3.13;0.90;;;29.20;37.60;;;;;;5036675;28;20120;-93
2022/07/07 10:29:16;;;;;;;2.25;0.77;;;29.40;37.70;;;;;;5036425;28;20061;-91
2022/07/07 10:31:50;;;;;;;3.53;1.02;;;29.60;37.60;;;;;;5054109;28;20024;-92
2022/07/07 10:34:16;;;;;;;4.55;0.77;;;29.80;36.60;;;;;;5057475;28;20033;-93
2022/07/07 10:36:51;;;;;;;3.65;0.70;;;30.00;36.50;;;;;;5050511;28;20037;-92
2022/07/07 10:39:20;;;;;;;8.65;0.70;;;30.10;36.90;;;;;;5037528;28;20028;-93
2022/07/07 10:42:11;;;;;;;1.48;0.60;;;30.00;36.20;;;;;;5037743;28;20545;-92
2022/07/07 10:44:38;;;;;;;4.78;0.93;;;29.80;35.70;;;;;;5036765;28;20056;-93
2022/07/07 10:47:11;;;;;;;2.08;0.60;;;29.70;36.60;;;;;;5047922;28;20029;-93
2022/07/07 10:49:44;;;;;;;7.93;0.77;;;29.60;36.30;;;;;;5056657;28;20079;-91
2022/07/07 10:52:16;;;;;;;2.03;0.75;;;29.50;36.10;;;;;;5056213;28;20047;-91
2022/07/07 10:54:44;;;;;;;1.23;0.60;;;29.40;36.70;;;;;;5056498;28;20069;-92
2022/07/07 10:57:16;;;;;;;3.80;0.80;;;29.20;36.90;;;;;;5056157;28;20047;-91
2022/07/07 11:00:01;;;;;;;1.20;0.60;;;29.10;36.90;;;;;;5039461;28;20025;-93
2022/07/07 11:02:33;;;;;;;2.17;0.80;;;29.10;37.70;;;;;;5035067;28;20090;-92
2022/07/07 11:05:01;;;;;;;1.58;0.70;;;29.10;37.20;;;;;;5036264;28;20040;-92
2022/07/07 11:07:28;;;;;;;1.73;0.70;;;29.10;37.20;;;;;;5034989;28;20039;-92
2022/07/07 11:10:09;;;;;;;3.20;0.70;;;29.10;37.10;;;;;;5036279;28;20040;-92
2022/07/07 11:12:38;;;;;;;1.67;0.60;;;29.20;36.60;;;;;;5036241;28;20037;-93
2022/07/07 11:15:21;;;;;;;5.78;1.02;;;29.30;37.00;;;;;;5036163;28;20021;-93
2022/07/07 11:17:56;;;;;;;2.95;0.80;;;29.40;36.10;;;;;;5053560;28;20040;-92
2022/07/07 11:20:24;;;;;;;2.15;0.85;;;29.30;36.40;;;;;;5035636;28;20457;-94
2022/07/07 11:22:53;;;;;;;2.38;0.80;;;29.30;36.50;;;;;;5035423;28;20423;-93
2022/07/07 11:25:23;;;;;;;3.25;0.82;;;29.30;36.20;;;;;;5035651;28;20162;-94
2022/07/07 11:27:51;;;;;;;2.47;0.65;;;29.40;36.20;;;;;;5035538;28;20078;-93
2022/07/07 11:30:21;;;;;;;0.93;0.55;;;29.30;36.10;;;;;;5035653;28;20413;-93
2022/07/07 11:32:46;;;;;;;2.15;0.85;;;29.30;36.80;;;;;;5035978;28;20078;-93
2022/07/07 11:35:14;;;;;;;1.30;0.65;;;29.20;36.30;;;;;;5035668;28;20048;-93
2022/07/07 11:37:45;;;;;;;2.70;0.60;;;29.20;36.30;;;;;;5036692;28;20501;-93
2022/07/07 11:40:14;;;;;;;2.05;0.68;;;29.10;36.60;;;;;;5037227;28;20032;-94
2022/07/07 11:42:43;;;;;;;3.17;0.70;;;29.00;36.90;;;;;;5035232;28;20029;-93
2022/07/07 11:45:22;;;;;;;2.85;0.70;;;28.90;36.40;;;;;;5053079;28;20490;-90
2022/07/07 11:47:50;;;;;;;2.75;0.68;;;28.50;36.90;;;;;;5035371;28;20036;-91
2022/07/07 11:50:17;;;;;;;1.17;0.70;;;28.10;37.00;;;;;;5035350;28;20040;-92
2022/07/07 11:52:57;;;;;;;1.77;0.70;;;27.90;37.70;;;;;;5036042;28;20436;-91
2022/07/07 11:55:24;;;;;;;1.98;0.60;;;27.60;39.00;;;;;;5035913;28;20108;-93
2022/07/07 11:57:53;;;;;;;2.72;1.20;;;27.50;38.60;;;;;;5052912;28;20047;-92
2022/07/07 12:00:27;;;;;;;2.35;0.93;;;27.50;39.00;;;;;;5036333;28;20033;-93
2022/07/07 12:02:56;;;;;;;2.30;0.70;;;27.50;39.30;;;;;;5034599;28;20017;-92
2022/07/07 12:05:27;;;;;;;2.22;0.52;;;27.40;38.80;;;;;;5035647;28;20052;-92
2022/07/07 12:07:54;;;;;;;4.15;0.60;;;27.50;39.30;;;;;;5036345;28;20111;-92
2022/07/07 12:10:24;;;;;;;2.45;0.70;;;27.60;39.20;;;;;;5034869;28;20493;-92
2022/07/07 12:13:10;;;;;;;5.47;0.70;;;27.60;38.90;;;;;;5034929;28;20033;-93
2022/07/07 12:15:45;;;;;;;49.27;2.47;;;27.70;38.30;;;;;;5035415;28;20639;-94
2022/07/07 12:18:12;;;;;;;30.50;3.67;;;27.60;39.10;;;;;;5033822;28;20031;-93
2022/07/07 12:20:39;;;;;;;29.98;2.45;;;27.70;38.90;;;;;;5032967;28;20032;-92
2022/07/07 12:23:09;;;;;;;10.45;0.80;;;27.60;39.10;;;;;;5033678;28;20021;-93
2022/07/07 12:25:36;;;;;;;14.18;1.20;;;27.40;39.20;;;;;;5035554;28;20027;-91
2022/07/07 12:28:03;;;;;;;4.15;1.08;;;27.20;39.50;;;;;;5034723;28;20041;-92
2022/07/07 12:30:34;;;;;;;8.13;0.75;;;27.10;40.10;;;;;;5034940;28;20048;-93
2022/07/07 12:33:01;;;;;;;4.60;1.10;;;27.00;39.90;;;;;;5035489;28;20107;-93
2022/07/07 12:35:38;;;;;;;1.85;0.55;;;26.80;39.60;;;;;;5039032;28;20071;-92
2022/07/07 12:38:05;;;;;;;9.60;0.90;;;26.90;39.90;;;;;;5033595;28;20040;-90
2022/07/07 12:40:33;;;;;;;5.35;0.98;;;27.00;40.00;;;;;;5012549;28;20122;-92
2022/07/07 12:43:10;;;;;;;21.30;1.08;;;27.20;40.20;;;;;;5004962;28;20038;-91
2022/07/07 12:45:38;;;;;;;3.15;0.93;;;27.20;40.90;;;;;;5024081;28;20050;-91
2022/07/07 12:48:14;;;;;;;3.67;0.60;;;27.30;41.00;;;;;;5012752;28;20054;-90
2022/07/07 12:50:40;;;;;;;;;;;27.50;40.10;;;;;;5007251;28;20046;-90
2022/07/07 12:53:07;;;;;;;4.73;0.70;;;27.50;39.50;;;;;;5008818;28;19920;-91
2022/07/07 12:55:37;;;;;;;2.28;0.90;;;27.50;39.30;;;;;;5003176;28;20034;-92
2022/07/07 12:58:22;;;;;;;3.30;0.80;;;27.50;39.70;;;;;;5014787;28;20197;-89
2022/07/07 13:01:03;;;;;;;0.93;0.52;;;27.60;39.50;;;;;;5025291;28;20050;-91
2022/07/07 13:03:29;;;;;;;2.05;0.80;;;27.70;39.00;;;;;;5014075;28;20044;-89